sensor_id;sensor_type;location;lat;lon;timestamp;P1;durP1;ratioP1;P2;durP2;ratioP2
40588;SDS011;26297;49.450;6.640;2023-11-19T00:01:28;0.35;;;0.30;;
40588;SDS011;26297;49.450;6.640;2023-11-19T00:04:52;0.10;;;0.10;;
40588;SDS011;26297;49.450;6.640;2023-11-19T00:08:50;1.50;;;0.28;;
40588;SDS011;26297;49.450;6.640;2023-11-19T00:11:54;0.10;;;0.10;;
40588;SDS011;26297;49.450;6.640;2023-11-19T00:14:59;0.20;;;0.10;;
40588;SDS011;26297;49.450;6.640;2023-11-19T00:18:12;0.30;;;0.20;;
40588;SDS011;26297;49.450;6.640;2023-11-19T00:21:37;0.00;;;0.00;;
40588;SDS011;26297;49.450;6.640;2023-11-19T00:24:40;0.85;;;0.10;;
40588;SDS011;26297;49.450;6.640;2023-11-19T00:28:12;0.20;;;0.20;;
40588;SDS011;26297;49.450;6.640;2023-11-19T00:31:16;0.15;;;0.15;;
40588;SDS011;26297;49.450;6.640;2023-11-19T00:34:45;0.20;;;0.20;;
40588;SDS011;26297;49.450;6.640;2023-11-19T00:37:50;0.22;;;0.10;;
40588;SDS011;26297;49.450;6.640;2023-11-19T00:41:04;0.10;;;0.10;;
40588;SDS011;26297;49.450;6.640;2023-11-19T00:44:08;0.38;;;0.15;;
40588;SDS011;26297;49.450;6.640;2023-11-19T00:47:37;1.45;;;0.28;;
40588;SDS011;26297;49.450;6.640;2023-11-19T00:50:41;0.30;;;0.30;;
40588;SDS011;26297;49.450;6.640;2023-11-19T00:53:48;0.20;;;0.15;;
40588;SDS011;26297;49.450;6.640;2023-11-19T00:56:52;0.03;;;0.03;;
40588;SDS011;26297;49.450;6.640;2023-11-19T00:59:55;1.55;;;0.05;;
40588;SDS011;26297;49.450;6.640;2023-11-19T01:02:58;0.30;;;0.22;;
40588;SDS011;26297;49.450;6.640;2023-11-19T01:06:03;0.10;;;0.10;;
40588;SDS011;26297;49.450;6.640;2023-11-19T01:09:08;0.10;;;0.00;;
40588;SDS011;26297;49.450;6.640;2023-11-19T01:12:11;0.52;;;0.10;;
40588;SDS011;26297;49.450;6.640;2023-11-19T01:15:35;0.10;;;0.00;;
40588;SDS011;26297;49.450;6.640;2023-11-19T01:18:38;0.10;;;0.10;;
40588;SDS011;26297;49.450;6.640;2023-11-19T01:21:42;2.10;;;0.10;;
40588;SDS011;26297;49.450;6.640;2023-11-19T01:24:46;0.08;;;0.08;;
40588;SDS011;26297;49.450;6.640;2023-11-19T01:27:52;0.20;;;0.10;;
40588;SDS011;26297;49.450;6.640;2023-11-19T01:31:01;0.20;;;0.20;;
40588;SDS011;26297;49.450;6.640;2023-11-19T01:34:04;0.57;;;0.10;;
40588;SDS011;26297;49.450;6.640;2023-11-19T01:37:07;0.77;;;0.15;;
40588;SDS011;26297;49.450;6.640;2023-11-19T01:40:15;0.40;;;0.10;;
40588;SDS011;26297;49.450;6.640;2023-11-19T01:43:38;0.20;;;0.20;;
40588;SDS011;26297;49.450;6.640;2023-11-19T01:46:45;0.10;;;0.10;;
40588;SDS011;26297;49.450;6.640;2023-11-19T01:50:13;0.05;;;0.03;;
40588;SDS011;26297;49.450;6.640;2023-11-19T01:53:22;0.10;;;0.10;;
40588;SDS011;26297;49.450;6.640;2023-11-19T01:56:26;0.32;;;0.20;;
40588;SDS011;26297;49.450;6.640;2023-11-19T01:59:33;0.08;;;0.00;;
40588;SDS011;26297;49.450;6.640;2023-11-19T02:02:52;0.28;;;0.10;;
40588;SDS011;26297;49.450;6.640;2023-11-19T02:05:57;0.13;;;0.13;;
40588;SDS011;26297;49.450;6.640;2023-11-19T02:09:00;0.10;;;0.10;;
40588;SDS011;26297;49.450;6.640;2023-11-19T02:12:04;0.25;;;0.10;;
40588;SDS011;26297;49.450;6.640;2023-11-19T02:15:07;0.47;;;0.43;;
40588;SDS011;26297;49.450;6.640;2023-11-19T02:18:19;0.20;;;0.13;;
40588;SDS011;26297;49.450;6.640;2023-11-19T02:21:33;0.10;;;0.10;;
40588;SDS011;26297;49.450;6.640;2023-11-19T02:24:36;0.17;;;0.17;;
40588;SDS011;26297;49.450;6.640;2023-11-19T02:27:59;0.15;;;0.15;;
40588;SDS011;26297;49.450;6.640;2023-11-19T02:31:04;0.20;;;0.20;;
40588;SDS011;26297;49.450;6.640;2023-11-19T02:34:11;0.20;;;0.20;;
40588;SDS011;26297;49.450;6.640;2023-11-19T02:37:14;0.47;;;0.30;;
40588;SDS011;26297;49.450;6.640;2023-11-19T02:40:20;0.30;;;0.30;;
40588;SDS011;26297;49.450;6.640;2023-11-19T02:43:29;0.17;;;0.17;;
40588;SDS011;26297;49.450;6.640;2023-11-19T02:46:33;0.25;;;0.20;;
40588;SDS011;26297;49.450;6.640;2023-11-19T02:49:36;0.65;;;0.20;;
40588;SDS011;26297;49.450;6.640;2023-11-19T02:52:43;1.08;;;0.40;;
40588;SDS011;26297;49.450;6.640;2023-11-19T02:55:48;0.30;;;0.30;;
40588;SDS011;26297;49.450;6.640;2023-11-19T02:58:52;2.05;;;0.35;;
40588;SDS011;26297;49.450;6.640;2023-11-19T03:01:59;0.60;;;0.35;;
40588;SDS011;26297;49.450;6.640;2023-11-19T03:05:02;0.80;;;0.57;;
40588;SDS011;26297;49.450;6.640;2023-11-19T03:08:06;0.75;;;0.63;;
40588;SDS011;26297;49.450;6.640;2023-11-19T03:11:10;0.30;;;0.30;;
40588;SDS011;26297;49.450;6.640;2023-11-19T03:14:13;0.30;;;0.30;;
40588;SDS011;26297;49.450;6.640;2023-11-19T03:17:15;0.20;;;0.20;;
40588;SDS011;26297;49.450;6.640;2023-11-19T03:20:18;0.40;;;0.40;;
40588;SDS011;26297;49.450;6.640;2023-11-19T03:23:23;0.43;;;0.43;;
40588;SDS011;26297;49.450;6.640;2023-11-19T03:26:27;2.15;;;0.30;;
40588;SDS011;26297;49.450;6.640;2023-11-19T03:29:29;0.40;;;0.30;;
40588;SDS011;26297;49.450;6.640;2023-11-19T03:32:32;0.40;;;0.40;;
40588;SDS011;26297;49.450;6.640;2023-11-19T03:35:37;3.22;;;0.30;;
40588;SDS011;26297;49.450;6.640;2023-11-19T03:38:43;0.45;;;0.30;;
40588;SDS011;26297;49.450;6.640;2023-11-19T03:41:46;2.45;;;0.38;;
40588;SDS011;26297;49.450;6.640;2023-11-19T03:44:50;0.40;;;0.40;;
40588;SDS011;26297;49.450;6.640;2023-11-19T03:47:55;0.30;;;0.30;;
40588;SDS011;26297;49.450;6.640;2023-11-19T03:50:58;0.82;;;0.35;;
40588;SDS011;26297;49.450;6.640;2023-11-19T03:54:01;0.45;;;0.35;;
40588;SDS011;26297;49.450;6.640;2023-11-19T03:57:05;0.55;;;0.30;;
40588;SDS011;26297;49.450;6.640;2023-11-19T04:00:08;1.35;;;0.50;;
40588;SDS011;26297;49.450;6.640;2023-11-19T04:03:15;2.85;;;0.63;;
40588;SDS011;26297;49.450;6.640;2023-11-19T04:06:18;0.98;;;0.30;;
40588;SDS011;26297;49.450;6.640;2023-11-19T04:09:24;0.73;;;0.40;;
40588;SDS011;26297;49.450;6.640;2023-11-19T04:12:28;2.65;;;0.60;;
40588;SDS011;26297;49.450;6.640;2023-11-19T04:15:31;0.47;;;0.30;;
40588;SDS011;26297;49.450;6.640;2023-11-19T04:18:34;1.52;;;0.80;;
40588;SDS011;26297;49.450;6.640;2023-11-19T04:21:41;0.90;;;0.50;;
40588;SDS011;26297;49.450;6.640;2023-11-19T04:24:45;1.10;;;0.22;;
40588;SDS011;26297;49.450;6.640;2023-11-19T04:27:49;1.75;;;0.40;;
40588;SDS011;26297;49.450;6.640;2023-11-19T04:30:52;1.20;;;0.50;;
40588;SDS011;26297;49.450;6.640;2023-11-19T04:33:55;3.08;;;0.98;;
40588;SDS011;26297;49.450;6.640;2023-11-19T04:36:58;1.13;;;0.40;;
40588;SDS011;26297;49.450;6.640;2023-11-19T04:40:05;0.50;;;0.50;;
40588;SDS011;26297;49.450;6.640;2023-11-19T04:43:10;1.63;;;0.32;;
40588;SDS011;26297;49.450;6.640;2023-11-19T04:46:14;2.20;;;0.38;;
40588;SDS011;26297;49.450;6.640;2023-11-19T04:49:18;1.38;;;0.40;;
40588;SDS011;26297;49.450;6.640;2023-11-19T04:52:31;1.48;;;0.50;;
40588;SDS011;26297;49.450;6.640;2023-11-19T04:55:34;0.60;;;0.60;;
40588;SDS011;26297;49.450;6.640;2023-11-19T04:58:40;1.08;;;0.30;;
40588;SDS011;26297;49.450;6.640;2023-11-19T05:01:46;0.55;;;0.40;;
40588;SDS011;26297;49.450;6.640;2023-11-19T05:04:50;2.30;;;0.30;;
40588;SDS011;26297;49.450;6.640;2023-11-19T05:07:53;0.30;;;0.30;;
40588;SDS011;26297;49.450;6.640;2023-11-19T05:10:57;3.75;;;0.80;;
40588;SDS011;26297;49.450;6.640;2023-11-19T05:14:03;1.60;;;0.50;;
40588;SDS011;26297;49.450;6.640;2023-11-19T05:17:10;1.45;;;0.50;;
40588;SDS011;26297;49.450;6.640;2023-11-19T05:20:13;0.98;;;0.30;;
40588;SDS011;26297;49.450;6.640;2023-11-19T05:23:17;0.93;;;0.50;;
40588;SDS011;26297;49.450;6.640;2023-11-19T05:26:21;2.75;;;0.52;;
40588;SDS011;26297;49.450;6.640;2023-11-19T05:29:26;1.58;;;0.40;;
40588;SDS011;26297;49.450;6.640;2023-11-19T05:32:32;0.32;;;0.30;;
40588;SDS011;26297;49.450;6.640;2023-11-19T05:35:35;1.70;;;0.52;;
40588;SDS011;26297;49.450;6.640;2023-11-19T05:38:39;1.33;;;0.30;;
40588;SDS011;26297;49.450;6.640;2023-11-19T05:41:51;2.10;;;0.45;;
40588;SDS011;26297;49.450;6.640;2023-11-19T05:44:54;4.00;;;0.60;;
40588;SDS011;26297;49.450;6.640;2023-11-19T05:47:57;1.83;;;0.77;;
40588;SDS011;26297;49.450;6.640;2023-11-19T05:51:07;2.50;;;0.55;;
40588;SDS011;26297;49.450;6.640;2023-11-19T05:54:10;0.30;;;0.30;;
40588;SDS011;26297;49.450;6.640;2023-11-19T05:57:16;1.00;;;0.50;;
40588;SDS011;26297;49.450;6.640;2023-11-19T06:00:22;0.73;;;0.50;;
40588;SDS011;26297;49.450;6.640;2023-11-19T06:03:27;0.30;;;0.30;;
40588;SDS011;26297;49.450;6.640;2023-11-19T06:06:30;1.65;;;0.40;;
40588;SDS011;26297;49.450;6.640;2023-11-19T06:09:33;0.50;;;0.50;;
40588;SDS011;26297;49.450;6.640;2023-11-19T06:12:36;3.33;;;0.50;;
40588;SDS011;26297;49.450;6.640;2023-11-19T06:15:47;3.78;;;0.57;;
40588;SDS011;26297;49.450;6.640;2023-11-19T06:21:53;1.33;;;0.25;;
40588;SDS011;26297;49.450;6.640;2023-11-19T06:24:56;0.43;;;0.30;;
40588;SDS011;26297;49.450;6.640;2023-11-19T06:28:01;0.75;;;0.45;;
40588;SDS011;26297;49.450;6.640;2023-11-19T06:31:04;0.60;;;0.50;;
40588;SDS011;26297;49.450;6.640;2023-11-19T06:34:07;2.30;;;0.40;;
40588;SDS011;26297;49.450;6.640;2023-11-19T06:37:11;0.85;;;0.60;;
40588;SDS011;26297;49.450;6.640;2023-11-19T06:40:15;1.80;;;0.65;;
40588;SDS011;26297;49.450;6.640;2023-11-19T06:43:19;0.73;;;0.30;;
40588;SDS011;26297;49.450;6.640;2023-11-19T06:46:22;0.75;;;0.40;;
40588;SDS011;26297;49.450;6.640;2023-11-19T06:49:26;1.35;;;0.43;;
40588;SDS011;26297;49.450;6.640;2023-11-19T06:52:28;1.73;;;0.32;;
40588;SDS011;26297;49.450;6.640;2023-11-19T06:55:36;2.95;;;0.55;;
40588;SDS011;26297;49.450;6.640;2023-11-19T06:58:39;1.58;;;0.60;;
40588;SDS011;26297;49.450;6.640;2023-11-19T07:01:46;1.25;;;0.43;;
40588;SDS011;26297;49.450;6.640;2023-11-19T07:04:52;0.57;;;0.43;;
40588;SDS011;26297;49.450;6.640;2023-11-19T07:07:55;1.77;;;0.70;;
40588;SDS011;26297;49.450;6.640;2023-11-19T07:10:59;0.88;;;0.60;;
40588;SDS011;26297;49.450;6.640;2023-11-19T07:14:02;1.17;;;0.40;;
40588;SDS011;26297;49.450;6.640;2023-11-19T07:17:06;0.45;;;0.40;;
40588;SDS011;26297;49.450;6.640;2023-11-19T07:20:11;1.38;;;0.63;;
40588;SDS011;26297;49.450;6.640;2023-11-19T07:23:18;0.73;;;0.60;;
40588;SDS011;26297;49.450;6.640;2023-11-19T07:26:24;2.70;;;0.50;;
40588;SDS011;26297;49.450;6.640;2023-11-19T07:29:27;1.40;;;0.50;;
40588;SDS011;26297;49.450;6.640;2023-11-19T07:32:30;1.70;;;0.40;;
40588;SDS011;26297;49.450;6.640;2023-11-19T07:35:33;3.00;;;0.60;;
40588;SDS011;26297;49.450;6.640;2023-11-19T07:38:37;3.20;;;0.60;;
40588;SDS011;26297;49.450;6.640;2023-11-19T07:41:41;2.42;;;0.70;;
40588;SDS011;26297;49.450;6.640;2023-11-19T07:44:44;1.40;;;0.40;;
40588;SDS011;26297;49.450;6.640;2023-11-19T07:47:48;1.20;;;0.50;;
40588;SDS011;26297;49.450;6.640;2023-11-19T07:50:51;1.92;;;0.80;;
40588;SDS011;26297;49.450;6.640;2023-11-19T07:53:55;1.45;;;0.90;;
40588;SDS011;26297;49.450;6.640;2023-11-19T07:56:59;1.75;;;0.50;;
40588;SDS011;26297;49.450;6.640;2023-11-19T08:00:03;1.05;;;0.43;;
40588;SDS011;26297;49.450;6.640;2023-11-19T08:03:06;4.25;;;0.65;;
40588;SDS011;26297;49.450;6.640;2023-11-19T08:06:11;1.30;;;0.82;;
40588;SDS011;26297;49.450;6.640;2023-11-19T08:09:14;1.25;;;0.40;;
40588;SDS011;26297;49.450;6.640;2023-11-19T08:12:17;3.80;;;0.60;;
40588;SDS011;26297;49.450;6.640;2023-11-19T08:15:27;2.42;;;0.55;;
40588;SDS011;26297;49.450;6.640;2023-11-19T08:18:30;1.63;;;0.70;;
40588;SDS011;26297;49.450;6.640;2023-11-19T08:21:34;4.18;;;0.55;;
40588;SDS011;26297;49.450;6.640;2023-11-19T08:24:39;1.13;;;0.38;;
40588;SDS011;26297;49.450;6.640;2023-11-19T08:27:43;1.30;;;0.85;;
40588;SDS011;26297;49.450;6.640;2023-11-19T08:30:46;1.83;;;0.40;;
40588;SDS011;26297;49.450;6.640;2023-11-19T08:33:49;1.60;;;1.05;;
40588;SDS011;26297;49.450;6.640;2023-11-19T08:37:02;1.95;;;0.50;;
40588;SDS011;26297;49.450;6.640;2023-11-19T08:40:08;1.17;;;0.60;;
40588;SDS011;26297;49.450;6.640;2023-11-19T08:43:12;3.38;;;0.55;;
40588;SDS011;26297;49.450;6.640;2023-11-19T08:46:15;3.65;;;0.68;;
40588;SDS011;26297;49.450;6.640;2023-11-19T08:49:28;3.38;;;0.88;;
40588;SDS011;26297;49.450;6.640;2023-11-19T08:52:30;1.00;;;0.60;;
40588;SDS011;26297;49.450;6.640;2023-11-19T08:55:34;2.17;;;0.63;;
40588;SDS011;26297;49.450;6.640;2023-11-19T08:58:37;0.80;;;0.32;;
40588;SDS011;26297;49.450;6.640;2023-11-19T09:01:40;3.45;;;0.63;;
40588;SDS011;26297;49.450;6.640;2023-11-19T09:04:53;3.72;;;0.65;;
40588;SDS011;26297;49.450;6.640;2023-11-19T09:07:56;1.95;;;0.88;;
40588;SDS011;26297;49.450;6.640;2023-11-19T09:10:59;4.50;;;1.25;;
40588;SDS011;26297;49.450;6.640;2023-11-19T09:14:02;2.10;;;0.80;;
40588;SDS011;26297;49.450;6.640;2023-11-19T09:17:08;3.35;;;1.05;;
40588;SDS011;26297;49.450;6.640;2023-11-19T09:20:12;5.55;;;0.80;;
40588;SDS011;26297;49.450;6.640;2023-11-19T09:23:18;3.72;;;0.90;;
40588;SDS011;26297;49.450;6.640;2023-11-19T09:26:21;2.78;;;0.77;;
40588;SDS011;26297;49.450;6.640;2023-11-19T09:29:24;2.58;;;0.80;;
40588;SDS011;26297;49.450;6.640;2023-11-19T09:32:27;1.85;;;0.70;;
40588;SDS011;26297;49.450;6.640;2023-11-19T09:35:31;2.38;;;0.73;;
40588;SDS011;26297;49.450;6.640;2023-11-19T09:38:34;3.15;;;0.65;;
40588;SDS011;26297;49.450;6.640;2023-11-19T09:41:44;3.22;;;0.52;;
40588;SDS011;26297;49.450;6.640;2023-11-19T09:45:21;4.07;;;0.70;;
40588;SDS011;26297;49.450;6.640;2023-11-19T09:48:29;3.88;;;0.70;;
40588;SDS011;26297;49.450;6.640;2023-11-19T09:51:35;1.00;;;0.50;;
40588;SDS011;26297;49.450;6.640;2023-11-19T09:54:39;1.73;;;0.57;;
40588;SDS011;26297;49.450;6.640;2023-11-19T09:58:00;2.33;;;0.40;;
40588;SDS011;26297;49.450;6.640;2023-11-19T10:05:18;1.42;;;0.50;;
40588;SDS011;26297;49.450;6.640;2023-11-19T10:08:24;3.80;;;0.77;;
40588;SDS011;26297;49.450;6.640;2023-11-19T10:11:28;4.53;;;1.10;;
40588;SDS011;26297;49.450;6.640;2023-11-19T10:14:31;8.13;;;2.20;;
40588;SDS011;26297;49.450;6.640;2023-11-19T10:17:39;6.88;;;1.48;;
40588;SDS011;26297;49.450;6.640;2023-11-19T10:20:43;5.50;;;1.60;;
40588;SDS011;26297;49.450;6.640;2023-11-19T10:23:51;4.68;;;1.05;;
40588;SDS011;26297;49.450;6.640;2023-11-19T10:26:56;4.57;;;1.70;;
40588;SDS011;26297;49.450;6.640;2023-11-19T10:30:00;3.35;;;1.05;;
40588;SDS011;26297;49.450;6.640;2023-11-19T10:33:13;2.85;;;0.82;;
40588;SDS011;26297;49.450;6.640;2023-11-19T10:36:22;2.65;;;0.50;;
40588;SDS011;26297;49.450;6.640;2023-11-19T10:43:01;1.13;;;0.50;;
40588;SDS011;26297;49.450;6.640;2023-11-19T10:46:12;6.53;;;1.70;;
40588;SDS011;26297;49.450;6.640;2023-11-19T10:49:16;4.03;;;0.70;;
40588;SDS011;26297;49.450;6.640;2023-11-19T10:52:19;1.38;;;0.50;;
40588;SDS011;26297;49.450;6.640;2023-11-19T10:55:24;1.17;;;0.50;;
40588;SDS011;26297;49.450;6.640;2023-11-19T11:01:43;6.32;;;0.80;;
40588;SDS011;26297;49.450;6.640;2023-11-19T11:04:48;5.63;;;0.75;;
40588;SDS011;26297;49.450;6.640;2023-11-19T11:07:55;2.25;;;0.50;;
40588;SDS011;26297;49.450;6.640;2023-11-19T11:10:58;1.45;;;0.43;;
40588;SDS011;26297;49.450;6.640;2023-11-19T11:14:03;6.05;;;1.25;;
40588;SDS011;26297;49.450;6.640;2023-11-19T11:17:08;1.63;;;0.50;;
40588;SDS011;26297;49.450;6.640;2023-11-19T11:20:13;3.70;;;1.05;;
40588;SDS011;26297;49.450;6.640;2023-11-19T11:37:33;2.17;;;0.57;;
40588;SDS011;26297;49.450;6.640;2023-11-19T11:43:52;2.75;;;0.38;;
40588;SDS011;26297;49.450;6.640;2023-11-19T11:47:00;2.78;;;0.82;;
40588;SDS011;26297;49.450;6.640;2023-11-19T11:50:06;3.25;;;0.47;;
40588;SDS011;26297;49.450;6.640;2023-11-19T11:53:18;2.33;;;0.80;;
40588;SDS011;26297;49.450;6.640;2023-11-19T11:56:24;2.80;;;0.70;;
40588;SDS011;26297;49.450;6.640;2023-11-19T12:06:34;5.93;;;0.85;;
40588;SDS011;26297;49.450;6.640;2023-11-19T12:09:42;2.75;;;0.68;;
40588;SDS011;26297;49.450;6.640;2023-11-19T12:12:53;3.33;;;1.05;;
40588;SDS011;26297;49.450;6.640;2023-11-19T12:19:06;3.13;;;0.75;;
40588;SDS011;26297;49.450;6.640;2023-11-19T12:22:10;1.77;;;0.40;;
40588;SDS011;26297;49.450;6.640;2023-11-19T12:25:17;4.72;;;1.15;;
40588;SDS011;26297;49.450;6.640;2023-11-19T12:28:21;1.88;;;0.40;;
40588;SDS011;26297;49.450;6.640;2023-11-19T12:31:30;1.95;;;0.50;;
40588;SDS011;26297;49.450;6.640;2023-11-19T12:34:47;4.97;;;0.75;;
40588;SDS011;26297;49.450;6.640;2023-11-19T12:37:51;2.05;;;0.65;;
40588;SDS011;26297;49.450;6.640;2023-11-19T12:41:07;3.42;;;0.30;;
40588;SDS011;26297;49.450;6.640;2023-11-19T12:51:39;3.10;;;0.70;;
40588;SDS011;26297;49.450;6.640;2023-11-19T12:54:42;4.55;;;0.75;;
40588;SDS011;26297;49.450;6.640;2023-11-19T12:57:50;3.33;;;1.05;;
40588;SDS011;26297;49.450;6.640;2023-11-19T13:01:06;1.40;;;0.43;;
40588;SDS011;26297;49.450;6.640;2023-11-19T13:04:17;4.63;;;0.77;;
40588;SDS011;26297;49.450;6.640;2023-11-19T13:11:31;1.05;;;0.35;;
40588;SDS011;26297;49.450;6.640;2023-11-19T13:14:38;2.75;;;0.60;;
40588;SDS011;26297;49.450;6.640;2023-11-19T13:17:41;2.85;;;0.80;;
40588;SDS011;26297;49.450;6.640;2023-11-19T13:33:29;2.72;;;1.20;;
40588;SDS011;26297;49.450;6.640;2023-11-19T13:36:33;3.15;;;0.47;;
40588;SDS011;26297;49.450;6.640;2023-11-19T13:39:41;2.80;;;0.60;;
40588;SDS011;26297;49.450;6.640;2023-11-19T13:42:45;2.05;;;0.40;;
40588;SDS011;26297;49.450;6.640;2023-11-19T13:45:48;2.70;;;0.50;;
40588;SDS011;26297;49.450;6.640;2023-11-19T13:48:52;6.28;;;1.00;;
40588;SDS011;26297;49.450;6.640;2023-11-19T13:51:57;1.42;;;0.22;;
40588;SDS011;26297;49.450;6.640;2023-11-19T13:55:01;1.88;;;0.70;;
40588;SDS011;26297;49.450;6.640;2023-11-19T13:58:13;2.33;;;0.50;;
40588;SDS011;26297;49.450;6.640;2023-11-19T14:01:34;1.67;;;0.43;;
40588;SDS011;26297;49.450;6.640;2023-11-19T14:10:20;3.10;;;0.40;;
40588;SDS011;26297;49.450;6.640;2023-11-19T14:13:27;1.17;;;0.40;;
40588;SDS011;26297;49.450;6.640;2023-11-19T14:16:31;1.55;;;0.50;;
40588;SDS011;26297;49.450;6.640;2023-11-19T14:19:34;3.65;;;1.05;;
40588;SDS011;26297;49.450;6.640;2023-11-19T14:22:44;2.45;;;0.68;;
40588;SDS011;26297;49.450;6.640;2023-11-19T14:25:51;2.33;;;0.60;;
40588;SDS011;26297;49.450;6.640;2023-11-19T14:28:54;2.33;;;0.80;;
40588;SDS011;26297;49.450;6.640;2023-11-19T14:31:58;2.10;;;0.80;;
40588;SDS011;26297;49.450;6.640;2023-11-19T14:35:03;3.05;;;0.50;;
40588;SDS011;26297;49.450;6.640;2023-11-19T14:38:08;5.25;;;1.00;;
40588;SDS011;26297;49.450;6.640;2023-11-19T14:41:13;3.60;;;1.20;;
40588;SDS011;26297;49.450;6.640;2023-11-19T15:26:38;4.53;;;0.70;;
40588;SDS011;26297;49.450;6.640;2023-11-19T15:29:42;4.43;;;1.02;;
40588;SDS011;26297;49.450;6.640;2023-11-19T15:32:45;3.72;;;1.08;;
40588;SDS011;26297;49.450;6.640;2023-11-19T15:35:48;2.95;;;0.77;;
40588;SDS011;26297;49.450;6.640;2023-11-19T15:38:52;4.10;;;0.98;;
40588;SDS011;26297;49.450;6.640;2023-11-19T15:41:55;4.28;;;1.00;;
40588;SDS011;26297;49.450;6.640;2023-11-19T15:45:09;1.83;;;0.75;;
40588;SDS011;26297;49.450;6.640;2023-11-19T15:48:15;2.22;;;0.57;;
40588;SDS011;26297;49.450;6.640;2023-11-19T15:51:24;2.90;;;0.90;;
40588;SDS011;26297;49.450;6.640;2023-11-19T16:58:22;4.68;;;0.95;;
40588;SDS011;26297;49.450;6.640;2023-11-19T17:01:29;4.80;;;1.50;;
40588;SDS011;26297;49.450;6.640;2023-11-19T17:23:35;5.07;;;1.05;;
40588;SDS011;26297;49.450;6.640;2023-11-19T17:26:45;12.10;;;1.98;;
40588;SDS011;26297;49.450;6.640;2023-11-19T17:38:32;3.03;;;0.90;;
40588;SDS011;26297;49.450;6.640;2023-11-19T17:45:05;3.28;;;0.98;;
40588;SDS011;26297;49.450;6.640;2023-11-19T17:48:11;3.83;;;1.27;;
40588;SDS011;26297;49.450;6.640;2023-11-19T17:55:38;10.60;;;1.73;;
40588;SDS011;26297;49.450;6.640;2023-11-19T17:58:53;6.65;;;1.35;;
40588;SDS011;26297;49.450;6.640;2023-11-19T18:02:01;7.75;;;1.58;;
40588;SDS011;26297;49.450;6.640;2023-11-19T18:09:06;3.33;;;0.82;;
40588;SDS011;26297;49.450;6.640;2023-11-19T18:12:57;9.25;;;1.08;;
40588;SDS011;26297;49.450;6.640;2023-11-19T18:16:04;12.48;;;1.65;;
40588;SDS011;26297;49.450;6.640;2023-11-19T18:19:20;4.50;;;1.08;;
40588;SDS011;26297;49.450;6.640;2023-11-19T18:22:23;9.52;;;2.17;;
40588;SDS011;26297;49.450;6.640;2023-11-19T18:25:40;6.28;;;1.10;;
40588;SDS011;26297;49.450;6.640;2023-11-19T18:28:53;7.32;;;1.73;;
40588;SDS011;26297;49.450;6.640;2023-11-19T18:32:02;6.70;;;1.13;;
40588;SDS011;26297;49.450;6.640;2023-11-19T18:35:18;4.43;;;1.00;;
40588;SDS011;26297;49.450;6.640;2023-11-19T18:38:26;6.25;;;1.02;;
40588;SDS011;26297;49.450;6.640;2023-11-19T18:42:01;5.03;;;1.83;;
40588;SDS011;26297;49.450;6.640;2023-11-19T18:45:15;11.52;;;1.73;;
40588;SDS011;26297;49.450;6.640;2023-11-19T18:48:39;11.43;;;1.70;;
40588;SDS011;26297;49.450;6.640;2023-11-19T18:55:26;4.30;;;1.10;;
40588;SDS011;26297;49.450;6.640;2023-11-19T18:58:45;3.47;;;1.55;;
40588;SDS011;26297;49.450;6.640;2023-11-19T19:02:34;5.72;;;1.42;;
40588;SDS011;26297;49.450;6.640;2023-11-19T19:05:46;4.53;;;0.95;;
40588;SDS011;26297;49.450;6.640;2023-11-19T19:09:04;9.45;;;1.52;;
40588;SDS011;26297;49.450;6.640;2023-11-19T20:25:01;4.18;;;1.08;;
40588;SDS011;26297;49.450;6.640;2023-11-19T20:28:26;5.28;;;0.82;;
40588;SDS011;26297;49.450;6.640;2023-11-19T20:32:11;5.20;;;1.23;;
40588;SDS011;26297;49.450;6.640;2023-11-19T20:35:35;4.53;;;1.42;;
40588;SDS011;26297;49.450;6.640;2023-11-19T20:43:23;9.93;;;2.17;;
40588;SDS011;26297;49.450;6.640;2023-11-19T20:46:50;6.25;;;1.58;;
40588;SDS011;26297;49.450;6.640;2023-11-19T20:49:54;9.98;;;2.15;;
40588;SDS011;26297;49.450;6.640;2023-11-19T20:52:57;6.00;;;0.90;;
40588;SDS011;26297;49.450;6.640;2023-11-19T20:56:11;8.23;;;2.00;;
40588;SDS011;26297;49.450;6.640;2023-11-19T20:59:14;5.28;;;1.10;;
40588;SDS011;26297;49.450;6.640;2023-11-19T21:02:19;8.23;;;1.58;;
40588;SDS011;26297;49.450;6.640;2023-11-19T21:05:23;6.63;;;1.73;;
40588;SDS011;26297;49.450;6.640;2023-11-19T21:08:26;4.78;;;1.17;;
40588;SDS011;26297;49.450;6.640;2023-11-19T21:11:30;3.90;;;1.30;;
40588;SDS011;26297;49.450;6.640;2023-11-19T21:14:33;7.38;;;1.60;;
40588;SDS011;26297;49.450;6.640;2023-11-19T21:17:36;6.28;;;1.52;;
40588;SDS011;26297;49.450;6.640;2023-11-19T21:20:40;6.93;;;1.30;;
40588;SDS011;26297;49.450;6.640;2023-11-19T21:23:43;5.68;;;1.38;;
40588;SDS011;26297;49.450;6.640;2023-11-19T21:26:46;5.97;;;1.40;;
40588;SDS011;26297;49.450;6.640;2023-11-19T21:29:49;6.18;;;1.58;;
40588;SDS011;26297;49.450;6.640;2023-11-19T21:32:52;9.32;;;2.25;;
40588;SDS011;26297;49.450;6.640;2023-11-19T21:35:56;4.47;;;1.38;;
40588;SDS011;26297;49.450;6.640;2023-11-19T21:39:00;6.63;;;1.50;;
40588;SDS011;26297;49.450;6.640;2023-11-19T21:42:03;3.83;;;0.82;;
40588;SDS011;26297;49.450;6.640;2023-11-19T21:45:06;10.57;;;1.73;;
40588;SDS011;26297;49.450;6.640;2023-11-19T22:09:52;5.93;;;1.60;;
40588;SDS011;26297;49.450;6.640;2023-11-19T22:12:56;7.38;;;2.38;;
40588;SDS011;26297;49.450;6.640;2023-11-19T22:15:59;5.32;;;1.27;;
40588;SDS011;26297;49.450;6.640;2023-11-19T22:19:02;5.75;;;2.42;;
40588;SDS011;26297;49.450;6.640;2023-11-19T22:22:05;8.80;;;1.98;;
40588;SDS011;26297;49.450;6.640;2023-11-19T22:25:08;7.00;;;1.80;;
40588;SDS011;26297;49.450;6.640;2023-11-19T22:28:12;12.40;;;1.75;;
40588;SDS011;26297;49.450;6.640;2023-11-19T22:31:17;9.18;;;2.78;;
40588;SDS011;26297;49.450;6.640;2023-11-19T22:34:20;8.20;;;1.45;;
40588;SDS011;26297;49.450;6.640;2023-11-19T22:37:24;4.15;;;0.93;;
40588;SDS011;26297;49.450;6.640;2023-11-19T22:40:27;11.73;;;1.23;;
40588;SDS011;26297;49.450;6.640;2023-11-19T22:43:30;9.85;;;2.05;;
40588;SDS011;26297;49.450;6.640;2023-11-19T22:46:33;9.18;;;1.88;;
40588;SDS011;26297;49.450;6.640;2023-11-19T22:49:39;5.88;;;1.00;;
40588;SDS011;26297;49.450;6.640;2023-11-19T22:52:42;10.05;;;2.15;;
40588;SDS011;26297;49.450;6.640;2023-11-19T22:55:47;4.88;;;1.92;;
40588;SDS011;26297;49.450;6.640;2023-11-19T22:58:50;5.53;;;1.27;;
40588;SDS011;26297;49.450;6.640;2023-11-19T23:01:53;6.93;;;1.70;;
40588;SDS011;26297;49.450;6.640;2023-11-19T23:04:57;7.55;;;1.23;;
40588;SDS011;26297;49.450;6.640;2023-11-19T23:08:02;2.22;;;0.98;;
40588;SDS011;26297;49.450;6.640;2023-11-19T23:11:06;6.50;;;1.60;;
40588;SDS011;26297;49.450;6.640;2023-11-19T23:14:09;6.22;;;1.25;;
40588;SDS011;26297;49.450;6.640;2023-11-19T23:17:15;10.93;;;1.30;;
40588;SDS011;26297;49.450;6.640;2023-11-19T23:20:19;6.07;;;1.33;;
40588;SDS011;26297;49.450;6.640;2023-11-19T23:23:23;3.45;;;1.10;;
40588;SDS011;26297;49.450;6.640;2023-11-19T23:26:26;3.80;;;0.82;;
40588;SDS011;26297;49.450;6.640;2023-11-19T23:29:30;6.32;;;1.50;;
40588;SDS011;26297;49.450;6.640;2023-11-19T23:32:33;7.55;;;1.05;;
40588;SDS011;26297;49.450;6.640;2023-11-19T23:35:37;8.88;;;1.40;;
40588;SDS011;26297;49.450;6.640;2023-11-19T23:38:40;2.50;;;0.90;;
40588;SDS011;26297;49.450;6.640;2023-11-19T23:41:43;5.22;;;0.90;;
40588;SDS011;26297;49.450;6.640;2023-11-19T23:44:46;8.10;;;1.38;;
40588;SDS011;26297;49.450;6.640;2023-11-19T23:47:49;9.43;;;1.30;;
40588;SDS011;26297;49.450;6.640;2023-11-19T23:50:52;8.07;;;1.27;;
40588;SDS011;26297;49.450;6.640;2023-11-19T23:53:57;4.40;;;1.40;;
40588;SDS011;26297;49.450;6.640;2023-11-19T23:57:00;6.05;;;1.30;;
